Time;durP1;ratioP1;P1;durP2;ratioP2;P2;SDS_P1;SDS_P2;PMS_P1;PMS_P2;Temp;Humidity;BMP_temperature;BMP_pressure;BME280_temperature;BME280_humidity;BME280_pressure;Samples;Min_cycle;Max_cycle;Signal;HPM_P1;HPM_P2
2022/09/22 00:02:00;;;;;;;20.75;19.55;;;7.10;91.00;;;;;;5025865;28;20240;-72
2022/09/22 00:04:29;;;;;;;20.30;19.25;;;7.00;91.10;;;;;;5026701;28;20413;-72
2022/09/22 00:06:56;;;;;;;20.00;19.00;;;7.00;91.30;;;;;;5028625;28;20208;-73
2022/09/22 00:09:23;;;;;;;20.02;18.88;;;7.00;91.30;;;;;;5032998;28;20319;-73
2022/09/22 00:11:52;;;;;;;20.17;19.10;;;7.00;91.30;;;;;;5025410;28;20198;-72
2022/09/22 00:14:21;;;;;;;19.60;18.60;;;7.00;91.10;;;;;;5022132;28;20656;-72
2022/09/22 00:16:50;;;;;;;19.98;18.83;;;7.00;90.90;;;;;;5027296;28;20296;-73
2022/09/22 00:19:21;;;;;;;19.25;18.25;;;7.00;90.80;;;;;;5034997;28;20205;-73
2022/09/22 00:21:48;;;;;;;19.30;18.30;;;6.90;91.20;;;;;;5027118;28;20718;-73
2022/09/22 00:24:17;;;;;;;20.55;19.10;;;6.90;91.50;;;;;;5029244;28;20224;-73
2022/09/22 00:26:44;;;;;;;20.00;19.00;;;6.80;91.70;;;;;;5023745;28;20206;-73
2022/09/22 00:29:13;;;;;;;19.98;18.98;;;6.90;91.40;;;;;;5031838;28;20204;-72
2022/09/22 00:31:41;;;;;;;19.35;18.45;;;6.90;91.30;;;;;;5026442;28;20537;-73
2022/09/22 00:34:13;;;;;;;20.10;18.90;;;6.90;91.20;;;;;;5029562;28;20218;-73
2022/09/22 00:36:42;;;;;;;18.65;17.65;;;6.90;91.30;;;;;;5026437;28;20189;-73
2022/09/22 00:39:09;;;;;;;19.45;18.27;;;6.90;91.20;;;;;;5034524;28;20193;-73
2022/09/22 00:41:39;;;;;;;18.80;17.80;;;6.80;91.30;;;;;;5026993;28;20225;-73
2022/09/22 00:44:36;;;;;;;21.30;20.00;;;6.70;91.50;;;;;;5028131;28;20213;-73
2022/09/22 00:47:13;;;;;;;19.30;18.35;;;6.70;91.80;;;;;;5024029;28;20220;-73
2022/09/22 00:49:46;;;;;;;18.60;17.70;;;6.60;91.90;;;;;;5026833;28;20199;-72
2022/09/22 00:52:18;;;;;;;19.50;18.38;;;6.60;92.10;;;;;;5029971;28;20197;-72
2022/09/22 00:54:45;;;;;;;20.25;18.98;;;6.70;92.70;;;;;;5034414;28;20225;-72
2022/09/22 00:57:17;;;;;;;19.30;18.30;;;6.70;92.20;;;;;;5020093;28;20300;-73
2022/09/22 00:59:46;;;;;;;19.58;18.48;;;6.60;92.00;;;;;;5031510;28;20201;-73
2022/09/22 01:02:13;;;;;;;18.80;17.90;;;6.70;91.80;;;;;;5030387;28;20221;-73
2022/09/22 01:04:41;;;;;;;19.20;18.20;;;6.60;91.70;;;;;;5027367;28;20198;-72
2022/09/22 01:07:10;;;;;;;19.55;18.55;;;6.60;91.70;;;;;;5030395;28;20291;-72
2022/09/22 01:09:38;;;;;;;20.35;19.15;;;6.50;91.90;;;;;;5030054;28;20205;-73
2022/09/22 01:12:05;;;;;;;19.85;18.73;;;6.50;92.10;;;;;;5029043;28;20559;-74
2022/09/22 01:14:45;;;;;;;19.15;18.08;;;6.50;91.90;;;;;;5039791;28;20209;-72
2022/09/22 01:17:22;;;;;;;20.08;18.85;;;6.50;92.30;;;;;;5030108;28;20202;-73
2022/09/22 01:20:22;;;;;;;19.23;18.33;;;6.50;91.90;;;;;;5041207;28;20194;-73
2022/09/22 01:23:13;;;;;;;19.67;18.40;;;6.50;92.00;;;;;;5029881;28;20221;-73
2022/09/22 01:26:10;;;;;;;18.73;17.75;;;6.50;92.20;;;;;;5021438;28;20206;-73
2022/09/22 01:29:00;;;;;;;19.65;18.48;;;6.50;92.20;;;;;;5029334;28;20868;-73
2022/09/22 01:31:34;;;;;;;19.05;18.05;;;6.50;92.00;;;;;;5029688;28;20205;-73
2022/09/22 01:34:08;;;;;;;19.65;18.38;;;6.50;91.70;;;;;;5028667;28;20647;-73
2022/09/22 01:36:39;;;;;;;19.40;18.30;;;6.40;91.70;;;;;;5026188;28;20644;-73
2022/09/22 01:39:13;;;;;;;19.48;18.48;;;6.30;92.00;;;;;;5029759;28;20620;-72
2022/09/22 01:41:49;;;;;;;19.55;18.55;;;6.40;92.20;;;;;;5031459;28;20202;-73
2022/09/22 01:44:24;;;;;;;19.25;18.15;;;6.40;92.10;;;;;;5026124;28;20301;-72
2022/09/22 01:46:57;;;;;;;19.30;18.20;;;6.30;92.30;;;;;;5026706;28;20219;-73
2022/09/22 01:49:26;;;;;;;20.73;19.40;;;6.30;92.40;;;;;;5026419;28;20555;-72
2022/09/22 01:51:56;;;;;;;20.30;19.10;;;6.30;92.30;;;;;;5031431;28;20282;-73
2022/09/22 01:54:28;;;;;;;20.27;19.10;;;6.30;92.50;;;;;;5026133;28;20221;-73
2022/09/22 01:57:00;;;;;;;19.00;18.10;;;6.40;92.20;;;;;;5026086;28;20205;-73
2022/09/22 01:59:30;;;;;;;18.17;17.08;;;6.30;91.80;;;;;;5028429;28;20289;-73
2022/09/22 02:02:03;;;;;;;18.08;17.17;;;6.30;91.90;;;;;;5027274;28;20229;-73
2022/09/22 02:04:35;;;;;;;18.05;17.15;;;6.20;92.30;;;;;;5028617;28;20225;-73
2022/09/22 02:07:06;;;;;;;19.80;18.80;;;6.20;92.60;;;;;;5028885;28;20190;-73
2022/09/22 02:09:34;;;;;;;23.05;21.55;;;6.10;92.80;;;;;;5025358;28;20198;-73
2022/09/22 02:12:02;;;;;;;18.98;17.88;;;6.20;92.90;;;;;;5031100;28;20671;-72
2022/09/22 02:14:30;;;;;;;20.23;19.02;;;6.20;92.60;;;;;;5027543;28;20596;-72
2022/09/22 02:17:00;;;;;;;19.92;18.73;;;6.20;92.20;;;;;;5028335;28;20209;-73
2022/09/22 02:19:32;;;;;;;21.23;19.70;;;6.20;92.30;;;;;;5026461;28;20203;-72
2022/09/22 02:21:59;;;;;;;19.85;18.85;;;6.20;92.30;;;;;;5023266;28;20568;-72
2022/09/22 02:24:31;;;;;;;18.33;17.33;;;6.20;92.40;;;;;;5028266;28;20205;-73
2022/09/22 02:27:00;;;;;;;27.25;25.83;;;6.10;92.50;;;;;;5030113;28;20655;-73
2022/09/22 02:29:30;;;;;;;22.40;20.65;;;6.10;92.80;;;;;;5026793;28;20204;-72
2022/09/22 02:32:00;;;;;;;19.10;17.98;;;6.10;92.90;;;;;;5022067;28;20208;-72
2022/09/22 02:34:28;;;;;;;20.35;19.25;;;6.00;92.90;;;;;;5028787;28;20610;-72
2022/09/22 02:37:00;;;;;;;22.33;21.13;;;6.00;92.90;;;;;;5030751;28;20726;-72
2022/09/22 02:39:33;;;;;;;19.20;18.15;;;6.00;92.90;;;;;;5025933;28;20223;-72
2022/09/22 02:42:16;;;;;;;20.73;19.38;;;6.00;93.00;;;;;;5029263;28;20226;-72
2022/09/22 02:44:49;;;;;;;19.55;18.55;;;6.10;92.50;;;;;;5025617;28;20212;-72
2022/09/22 02:47:22;;;;;;;18.75;17.80;;;6.00;92.80;;;;;;5030638;28;20682;-72
2022/09/22 02:49:50;;;;;;;18.52;17.52;;;6.00;92.70;;;;;;5027533;28;20934;-73
2022/09/22 02:52:20;;;;;;;21.05;20.02;;;6.00;92.60;;;;;;5030473;28;20783;-72
2022/09/22 02:54:47;;;;;;;20.65;19.45;;;5.90;92.70;;;;;;5027909;28;20548;-72
2022/09/22 02:57:14;;;;;;;27.73;26.27;;;5.90;92.90;;;;;;5027100;28;20208;-72
2022/09/22 02:59:41;;;;;;;18.92;18.02;;;5.90;93.00;;;;;;5025737;28;20197;-72
2022/09/22 03:02:08;;;;;;;22.15;20.95;;;5.80;93.20;;;;;;5028841;28;20206;-72
2022/09/22 03:04:36;;;;;;;18.92;17.83;;;5.80;93.40;;;;;;5023812;28;20629;-73
2022/09/22 03:07:05;;;;;;;21.17;20.05;;;5.90;93.40;;;;;;5027761;28;20670;-72
2022/09/22 03:09:32;;;;;;;31.63;30.13;;;5.90;92.90;;;;;;5025954;28;20205;-72
2022/09/22 03:11:59;;;;;;;29.27;27.83;;;5.80;93.00;;;;;;5029013;28;20202;-73
2022/09/22 03:14:26;;;;;;;30.58;29.10;;;5.80;93.30;;;;;;5026520;28;20828;-73
2022/09/22 03:16:53;;;;;;;20.15;19.15;;;5.80;93.30;;;;;;5033965;28;20197;-72
2022/09/22 03:19:20;;;;;;;19.20;18.10;;;5.80;93.30;;;;;;5028687;28;20851;-73
2022/09/22 03:21:48;;;;;;;21.30;20.00;;;5.80;93.20;;;;;;5026508;28;20220;-73
2022/09/22 03:24:15;;;;;;;27.08;25.63;;;5.70;93.40;;;;;;5027502;28;20235;-72
2022/09/22 03:26:42;;;;;;;32.00;30.40;;;5.70;93.30;;;;;;5030349;28;20193;-73
2022/09/22 03:29:09;;;;;;;20.83;19.75;;;5.80;93.10;;;;;;5027946;28;20193;-73
2022/09/22 03:31:36;;;;;;;22.15;21.05;;;5.70;92.60;;;;;;5026255;28;20285;-73
2022/09/22 03:34:03;;;;;;;23.00;21.80;;;5.70;92.60;;;;;;5025605;28;20209;-72
2022/09/22 03:36:30;;;;;;;22.75;21.55;;;5.60;93.00;;;;;;5028868;28;20205;-73
2022/09/22 03:38:59;;;;;;;19.48;18.33;;;5.60;92.90;;;;;;5024627;28;20224;-76
2022/09/22 03:41:26;;;;;;;33.63;31.77;;;5.60;92.90;;;;;;5030945;28;20197;-74
2022/09/22 03:43:53;;;;;;;19.20;17.90;;;5.50;93.20;;;;;;5024995;28;20322;-73
2022/09/22 03:46:19;;;;;;;23.30;22.00;;;5.50;93.10;;;;;;5041238;28;20198;-76
2022/09/22 03:48:46;;;;;;;24.90;23.55;;;5.50;92.90;;;;;;5025476;28;20239;-73
2022/09/22 03:51:13;;;;;;;25.38;23.83;;;5.50;93.20;;;;;;5025846;28;20205;-73
2022/09/22 03:53:40;;;;;;;26.60;25.20;;;5.40;93.40;;;;;;5026008;28;20601;-73
2022/09/22 03:56:11;;;;;;;21.63;20.52;;;5.40;93.60;;;;;;5035041;28;20693;-74
2022/09/22 03:58:38;;;;;;;21.55;20.15;;;5.50;93.40;;;;;;5023613;28;20737;-74
2022/09/22 04:01:06;;;;;;;29.33;27.65;;;5.50;93.20;;;;;;5031981;28;20197;-73
2022/09/22 04:03:33;;;;;;;23.20;21.98;;;5.50;93.20;;;;;;5026766;28;20225;-73
2022/09/22 04:06:00;;;;;;;18.20;17.13;;;5.50;93.10;;;;;;5032890;28;20193;-73
2022/09/22 04:08:27;;;;;;;19.90;18.80;;;5.50;93.00;;;;;;5025755;28;20675;-74
2022/09/22 04:10:54;;;;;;;20.52;19.25;;;5.40;93.00;;;;;;5021015;28;20193;-73
2022/09/22 04:13:22;;;;;;;31.90;30.38;;;5.40;93.50;;;;;;5026618;28;20214;-76
2022/09/22 04:15:49;;;;;;;31.90;30.30;;;5.40;93.50;;;;;;5029138;28;20211;-74
2022/09/22 04:18:16;;;;;;;18.38;17.17;;;5.40;93.70;;;;;;5025693;28;20284;-74
2022/09/22 04:20:44;;;;;;;19.65;18.45;;;5.40;93.70;;;;;;5028174;28;20690;-75
2022/09/22 04:23:12;;;;;;;32.38;30.75;;;5.40;93.60;;;;;;5022817;28;20853;-73
2022/09/22 04:25:39;;;;;;;23.25;21.85;;;5.40;93.50;;;;;;5035891;28;20203;-74
2022/09/22 04:28:06;;;;;;;20.83;19.73;;;5.40;93.30;;;;;;5026720;28;20204;-75
2022/09/22 04:30:36;;;;;;;21.13;19.88;;;5.50;92.80;;;;;;5029716;28;20913;-74
2022/09/22 04:33:03;;;;;;;20.13;18.90;;;5.40;93.10;;;;;;5026573;28;20214;-73
2022/09/22 04:35:30;;;;;;;36.55;34.75;;;5.40;93.10;;;;;;5023840;28;20296;-74
2022/09/22 04:37:58;;;;;;;20.60;19.45;;;5.40;93.10;;;;;;5023561;28;20288;-74
2022/09/22 04:40:25;;;;;;;37.72;35.53;;;5.30;93.20;;;;;;5026609;28;20245;-74
2022/09/22 04:42:52;;;;;;;20.50;19.25;;;5.30;93.20;;;;;;5026501;28;20316;-73
2022/09/22 04:45:19;;;;;;;23.42;22.23;;;5.30;93.20;;;;;;5020526;28;20205;-73
2022/09/22 04:47:49;;;;;;;24.30;23.00;;;5.30;93.20;;;;;;5022775;28;20198;-73
2022/09/22 04:50:17;;;;;;;18.80;17.70;;;5.30;93.30;;;;;;5026666;28;20201;-74
2022/09/22 04:52:45;;;;;;;26.90;25.50;;;5.20;93.50;;;;;;5032844;28;20885;-74
2022/09/22 04:55:14;;;;;;;29.15;27.55;;;5.20;93.70;;;;;;5032043;28;20194;-72
2022/09/22 04:57:41;;;;;;;24.90;23.58;;;5.20;93.80;;;;;;5025845;28;20196;-73
2022/09/22 05:00:09;;;;;;;23.20;21.80;;;5.30;93.50;;;;;;5031533;28;20209;-72
2022/09/22 05:02:36;;;;;;;35.58;33.40;;;5.20;93.30;;;;;;5026955;28;20221;-73
2022/09/22 05:05:05;;;;;;;19.20;18.30;;;5.30;93.20;;;;;;5021123;28;20592;-75
2022/09/22 05:07:32;;;;;;;37.05;35.25;;;5.20;93.40;;;;;;5028997;28;20252;-74
2022/09/22 05:09:59;;;;;;;18.10;17.08;;;5.20;93.80;;;;;;5033605;28;20197;-74
2022/09/22 05:12:26;;;;;;;34.45;32.75;;;5.20;94.00;;;;;;5025538;28;20271;-74
2022/09/22 05:14:53;;;;;;;31.25;29.65;;;5.30;94.00;;;;;;5026502;28;20324;-73
2022/09/22 05:17:20;;;;;;;19.65;18.58;;;5.30;93.90;;;;;;5028224;28;20193;-74
2022/09/22 05:19:47;;;;;;;26.70;25.38;;;5.30;93.50;;;;;;5031884;28;20204;-73
2022/09/22 05:22:16;;;;;;;19.00;18.00;;;5.40;93.40;;;;;;5028875;28;20204;-73
2022/09/22 05:24:43;;;;;;;22.80;21.55;;;5.40;93.00;;;;;;5024038;28;20308;-73
2022/09/22 05:27:10;;;;;;;22.40;21.13;;;5.40;92.90;;;;;;5026256;28;20197;-73
2022/09/22 05:29:36;;;;;;;36.10;34.30;;;5.30;94.10;;;;;;5030107;28;20562;-74
2022/09/22 05:32:03;;;;;;;21.25;20.10;;;5.40;93.60;;;;;;5026203;28;20198;-73
2022/09/22 05:34:30;;;;;;;19.33;18.20;;;5.40;93.20;;;;;;5032788;28;20220;-73
2022/09/22 05:36:57;;;;;;;22.35;21.08;;;5.40;93.30;;;;;;5038518;28;20301;-73
2022/09/22 05:39:25;;;;;;;32.50;30.85;;;5.50;93.20;;;;;;5032652;28;20193;-73
2022/09/22 05:41:52;;;;;;;24.73;23.52;;;5.50;92.80;;;;;;5033318;28;20194;-72
2022/09/22 05:44:20;;;;;;;18.20;17.25;;;5.50;92.50;;;;;;5028985;28;20222;-73
2022/09/22 05:46:47;;;;;;;24.30;22.98;;;5.50;92.60;;;;;;5031161;28;20213;-72
2022/09/22 05:49:14;;;;;;;19.35;18.13;;;5.50;92.70;;;;;;5029078;28;20210;-73
2022/09/22 05:51:41;;;;;;;21.48;20.00;;;5.60;92.70;;;;;;5028968;28;20677;-72
2022/09/22 05:54:09;;;;;;;27.00;25.48;;;5.60;92.60;;;;;;5028682;28;20772;-73
2022/09/22 05:56:37;;;;;;;25.40;24.08;;;5.70;92.50;;;;;;5042187;28;20272;-72
2022/09/22 05:59:04;;;;;;;32.17;30.27;;;5.80;92.30;;;;;;5029662;28;20198;-73
2022/09/22 06:01:31;;;;;;;30.65;29.15;;;5.80;92.10;;;;;;5019990;28;20198;-74
2022/09/22 06:03:58;;;;;;;32.67;30.98;;;5.90;92.00;;;;;;5022812;28;20226;-74
2022/09/22 06:06:25;;;;;;;23.98;22.67;;;6.00;91.90;;;;;;5027495;28;20659;-75
2022/09/22 06:08:52;;;;;;;21.20;20.00;;;6.10;92.10;;;;;;5029766;28;20223;-74
2022/09/22 06:11:19;;;;;;;26.23;24.73;;;6.20;91.80;;;;;;5033215;28;20290;-74
2022/09/22 06:13:50;;;;;;;25.98;24.65;;;6.20;91.60;;;;;;5025924;28;20223;-75
2022/09/22 06:16:17;;;;;;;25.27;23.88;;;6.20;91.10;;;;;;5034385;28;20683;-74
2022/09/22 06:18:45;;;;;;;20.95;19.70;;;6.30;90.90;;;;;;5027926;28;20695;-73
2022/09/22 06:21:12;;;;;;;26.08;24.58;;;6.30;90.90;;;;;;5033230;28;20205;-73
2022/09/22 06:23:39;;;;;;;21.17;19.52;;;6.40;90.90;;;;;;5027464;28;20241;-74
2022/09/22 06:26:07;;;;;;;26.30;24.77;;;6.40;90.90;;;;;;5028559;28;20198;-74
2022/09/22 06:28:34;;;;;;;21.38;20.10;;;6.50;90.80;;;;;;5028830;28;20670;-74
2022/09/22 06:31:02;;;;;;;21.77;20.67;;;6.60;90.60;;;;;;5035420;28;20284;-74
2022/09/22 06:33:30;;;;;;;41.00;39.20;;;6.60;90.60;;;;;;5025751;28;20217;-73
2022/09/22 06:35:57;;;;;;;35.05;33.10;;;6.70;90.50;;;;;;5035619;28;20194;-76
2022/09/22 06:38:24;;;;;;;30.27;28.48;;;6.80;90.30;;;;;;5029303;28;20284;-74
2022/09/22 06:40:51;;;;;;;23.38;22.02;;;6.90;90.20;;;;;;5032041;28;20284;-74
2022/09/22 06:43:21;;;;;;;28.33;26.73;;;7.00;90.20;;;;;;5019668;28;20218;-73
2022/09/22 06:45:50;;;;;;;21.48;20.27;;;7.10;90.20;;;;;;5039094;28;20250;-74
2022/09/22 06:48:22;;;;;;;28.20;26.70;;;7.20;89.80;;;;;;5024535;28;20202;-72
2022/09/22 06:50:51;;;;;;;20.05;18.88;;;7.40;89.50;;;;;;5033856;28;20212;-73
2022/09/22 06:53:18;;;;;;;36.20;34.20;;;7.40;89.20;;;;;;5023437;28;20209;-74
2022/09/22 06:55:46;;;;;;;23.23;21.77;;;7.50;89.00;;;;;;5041703;28;20280;-74
2022/09/22 06:58:14;;;;;;;25.30;23.77;;;7.60;88.80;;;;;;5025288;28;20576;-76
2022/09/22 07:00:42;;;;;;;25.20;23.70;;;7.70;88.60;;;;;;5030661;28;20579;-77
2022/09/22 07:03:15;;;;;;;36.33;34.42;;;7.80;88.30;;;;;;5029675;28;20225;-76
2022/09/22 07:05:52;;;;;;;24.73;23.13;;;7.90;88.00;;;;;;5040750;28;20209;-76
2022/09/22 07:08:19;;;;;;;25.63;24.13;;;7.90;88.20;;;;;;5027362;28;20863;-73
2022/09/22 07:10:51;;;;;;;27.05;25.45;;;8.00;88.10;;;;;;5039918;28;20280;-75
2022/09/22 07:13:18;;;;;;;34.08;31.88;;;8.20;87.80;;;;;;5029811;28;20213;-73
2022/09/22 07:15:45;;;;;;;34.63;32.47;;;8.30;87.30;;;;;;5031321;28;20284;-72
2022/09/22 07:18:13;;;;;;;22.48;21.27;;;8.40;87.00;;;;;;5031250;28;20237;-71
2022/09/22 07:20:40;;;;;;;30.58;28.88;;;8.60;86.60;;;;;;5042590;28;20201;-71
2022/09/22 07:23:17;;;;;;;36.58;34.35;;;8.70;86.20;;;;;;5029081;28;20715;-74
2022/09/22 07:25:55;;;;;;;24.58;22.88;;;8.90;85.90;;;;;;5033891;28;20671;-74
2022/09/22 07:28:22;;;;;;;38.10;36.00;;;9.10;85.50;;;;;;5030690;28;20201;-74
2022/09/22 07:30:49;;;;;;;26.15;24.75;;;9.20;85.10;;;;;;5030415;28;20233;-73
2022/09/22 07:33:18;;;;;;;40.45;38.30;;;9.40;84.60;;;;;;5028478;28;20809;-72
2022/09/22 07:35:45;;;;;;;32.03;30.13;;;9.50;84.50;;;;;;5024639;28;20278;-72
2022/09/22 07:38:13;;;;;;;25.83;24.40;;;9.60;83.70;;;;;;5028267;28;20206;-72
2022/09/22 07:40:40;;;;;;;34.90;33.00;;;9.70;83.90;;;;;;5030661;28;20636;-72
2022/09/22 07:43:07;;;;;;;40.53;38.33;;;9.80;83.10;;;;;;5028849;28;20487;-72
2022/09/22 07:45:34;;;;;;;32.60;30.87;;;9.90;82.40;;;;;;5029037;28;20480;-71
2022/09/22 07:50:54;;;;;;;33.10;31.50;;;10.20;81.80;;;;;;5027454;28;20485;-72
2022/09/22 07:53:22;;;;;;;28.60;26.80;;;10.30;81.30;;;;;;5026496;28;20481;-72
2022/09/22 07:55:49;;;;;;;34.67;32.87;;;10.40;80.20;;;;;;5028078;28;21223;-72
2022/09/22 07:58:16;;;;;;;36.90;34.57;;;10.50;80.40;;;;;;5029092;28;20467;-71
2022/09/22 08:00:43;;;;;;;38.33;36.13;;;10.70;79.70;;;;;;5040195;28;20456;-72
2022/09/22 08:03:09;;;;;;;34.50;32.67;;;10.80;78.90;;;;;;5027456;28;21334;-72
2022/09/22 08:05:38;;;;;;;33.37;31.20;;;10.80;78.60;;;;;;5027230;28;20488;-72
2022/09/22 08:08:06;;;;;;;34.90;32.90;;;10.80;79.10;;;;;;5024457;28;20586;-72
2022/09/22 08:10:35;;;;;;;34.20;31.97;;;10.90;79.10;;;;;;5025625;28;20467;-72
2022/09/22 08:13:03;;;;;;;42.47;39.90;;;11.10;78.60;;;;;;5027800;28;20487;-73
2022/09/22 08:15:30;;;;;;;40.80;38.20;;;11.20;78.70;;;;;;5028842;28;20453;-72
2022/09/22 08:17:57;;;;;;;35.17;32.60;;;11.30;78.30;;;;;;5026928;28;20466;-72
2022/09/22 08:20:27;;;;;;;41.77;38.67;;;11.30;78.30;;;;;;5024975;28;20533;-72
2022/09/22 08:22:56;;;;;;;40.10;37.30;;;11.40;78.00;;;;;;5028809;28;20503;-72
2022/09/22 08:25:24;;;;;;;36.27;34.07;;;11.70;77.30;;;;;;5032135;28;20530;-72
2022/09/22 08:27:53;;;;;;;33.70;31.80;;;11.90;76.00;;;;;;5024670;28;20508;-71
2022/09/22 08:30:19;;;;;;;38.00;35.83;;;11.90;75.50;;;;;;5025523;28;20462;-72
2022/09/22 08:32:46;;;;;;;43.97;41.67;;;11.90;75.70;;;;;;5028984;28;20992;-71
2022/09/22 08:35:13;;;;;;;41.93;39.50;;;12.00;75.40;;;;;;5036624;28;20451;-73
2022/09/22 08:37:42;;;;;;;38.17;35.90;;;12.20;74.80;;;;;;5031846;28;20451;-74
2022/09/22 08:40:16;;;;;;;41.97;39.30;;;12.30;74.40;;;;;;5020236;28;20452;-72
2022/09/22 08:42:44;;;;;;;40.50;37.80;;;12.50;73.60;;;;;;5032632;28;20487;-72
2022/09/22 08:45:26;;;;;;;42.80;40.20;;;12.50;73.60;;;;;;5028288;28;20482;-73
2022/09/22 08:53:37;;;;;;;35.83;33.77;;;12.70;72.30;;;;;;5025180;28;21113;-73
2022/09/22 08:56:16;;;;;;;34.50;32.80;;;12.70;71.20;;;;;;5022015;28;20459;-71
2022/09/22 08:58:54;;;;;;;36.80;35.00;;;12.60;70.10;;;;;;5027804;28;20458;-72
2022/09/22 09:01:34;;;;;;;41.83;39.10;;;12.70;70.00;;;;;;5032081;28;20459;-73
2022/09/22 09:04:15;;;;;;;30.87;29.27;;;12.90;69.40;;;;;;5019944;28;20487;-73
2022/09/22 09:06:49;;;;;;;33.97;32.00;;;13.10;69.50;;;;;;5023361;28;20464;-72
2022/09/22 09:09:34;;;;;;;31.17;29.57;;;13.20;69.30;;;;;;5031383;28;20995;-72
2022/09/22 09:12:22;;;;;;;29.83;28.33;;;13.50;68.60;;;;;;5025471;28;20502;-73
2022/09/22 09:15:09;;;;;;;33.80;32.10;;;13.60;67.80;;;;;;5036812;28;20462;-73
2022/09/22 09:17:40;;;;;;;34.27;32.57;;;13.50;67.30;;;;;;5027231;28;20463;-77
2022/09/22 09:20:16;;;;;;;30.80;29.20;;;13.70;67.10;;;;;;5023624;28;20464;-74
2022/09/22 09:22:48;;;;;;;42.57;40.47;;;13.80;66.60;;;;;;5033819;28;20528;-73
2022/09/22 09:25:19;;;;;;;30.00;28.50;;;13.80;66.30;;;;;;5030667;28;20481;-76
2022/09/22 09:27:50;;;;;;;33.70;31.70;;;14.00;65.80;;;;;;5029937;28;20457;-72
2022/09/22 09:30:19;;;;;;;31.40;29.80;;;13.90;66.10;;;;;;5034929;28;20988;-73
2022/09/22 09:32:51;;;;;;;30.70;29.10;;;13.90;66.00;;;;;;5029601;28;20479;-74
2022/09/22 09:35:22;;;;;;;32.27;30.57;;;14.00;65.80;;;;;;5035154;28;20599;-73
2022/09/22 09:37:51;;;;;;;39.67;37.77;;;14.10;65.10;;;;;;5030274;28;20460;-75
2022/09/22 09:40:20;;;;;;;41.53;39.47;;;14.30;65.40;;;;;;5034293;28;20465;-74
2022/09/22 09:42:53;;;;;;;30.30;28.50;;;14.30;64.80;;;;;;5028199;28;20538;-75
2022/09/22 09:45:26;;;;;;;35.47;33.67;;;14.30;64.80;;;;;;5027977;28;20479;-74
2022/09/22 09:48:11;;;;;;;29.23;27.93;;;14.20;65.20;;;;;;5029976;28;21047;-74
2022/09/22 09:50:38;;;;;;;30.50;29.00;;;14.30;65.10;;;;;;5024046;28;20456;-79
2022/09/22 09:53:05;;;;;;;37.63;35.77;;;14.50;64.70;;;;;;5031521;28;20490;-74
2022/09/22 09:55:34;;;;;;;35.33;33.60;;;14.70;64.10;;;;;;5032395;28;20451;-74
2022/09/22 09:58:08;;;;;;;32.87;31.27;;;15.00;62.90;;;;;;5032139;28;20533;-74
2022/09/22 10:00:51;;;;;;;36.53;34.73;;;15.10;63.30;;;;;;5027720;28;20456;-73
2022/09/22 10:03:25;;;;;;;39.63;37.43;;;15.30;62.80;;;;;;5027980;28;21003;-74
2022/09/22 10:05:58;;;;;;;32.40;30.47;;;15.40;62.50;;;;;;5030730;28;20480;-74
2022/09/22 10:08:27;;;;;;;32.30;30.70;;;15.40;63.00;;;;;;5021688;28;20468;-75
2022/09/22 10:10:57;;;;;;;33.27;31.47;;;15.60;62.10;;;;;;5028184;28;20458;-78
2022/09/22 10:13:33;;;;;;;34.60;32.80;;;15.70;62.20;;;;;;5030182;28;20953;-73
2022/09/22 10:16:21;;;;;;;30.13;28.70;;;15.70;61.70;;;;;;5034487;28;20452;-73
2022/09/22 10:19:03;;;;;;;33.97;32.17;;;15.80;61.50;;;;;;5025421;28;20460;-76
2022/09/22 10:21:30;;;;;;;33.07;31.57;;;15.90;61.40;;;;;;5030737;28;20461;-75
2022/09/22 10:23:58;;;;;;;30.33;28.83;;;15.90;61.00;;;;;;5029519;28;20478;-75
2022/09/22 10:26:27;;;;;;;33.33;31.70;;;15.90;61.00;;;;;;5033083;28;20862;-73
2022/09/22 10:29:17;;;;;;;31.40;29.80;;;16.00;60.90;;;;;;5022933;28;20479;-79
2022/09/22 10:32:01;;;;;;;36.00;34.23;;;16.10;60.90;;;;;;5025028;28;20455;-75
2022/09/22 10:34:31;;;;;;;31.60;30.10;;;16.00;60.70;;;;;;5029169;28;20467;-71
2022/09/22 10:37:00;;;;;;;32.27;30.77;;;15.80;60.70;;;;;;5025121;28;20576;-71
2022/09/22 10:39:35;;;;;;;31.27;29.77;;;15.80;60.70;;;;;;5026581;28;20467;-71
2022/09/22 10:42:06;;;;;;;31.40;29.90;;;15.80;59.20;;;;;;5030514;28;20451;-71
2022/09/22 10:44:34;;;;;;;35.77;34.07;;;15.80;59.60;;;;;;5026521;28;20456;-71
2022/09/22 10:47:20;;;;;;;32.43;30.93;;;16.10;59.40;;;;;;5028429;28;20487;-71
2022/09/22 10:50:11;;;;;;;36.60;34.70;;;16.30;59.00;;;;;;5025365;28;20494;-72
2022/09/22 10:52:50;;;;;;;33.73;32.07;;;16.40;57.50;;;;;;5016638;28;20486;-71
2022/09/22 10:55:28;;;;;;;31.83;30.23;;;16.40;57.70;;;;;;5026172;28;20471;-72
2022/09/22 10:58:30;;;;;;;41.00;39.07;;;16.50;57.90;;;;;;5026824;28;21001;-72
2022/09/22 11:01:13;;;;;;;31.07;29.47;;;16.40;57.50;;;;;;5030170;28;20475;-76
2022/09/22 11:04:12;;;;;;;29.77;28.37;;;16.30;57.70;;;;;;5026602;28;21073;-76
2022/09/22 11:12:55;;;;;;;33.80;32.10;;;16.10;56.90;;;;;;5032410;28;20479;-76
2022/09/22 11:15:33;;;;;;;36.83;35.03;;;16.30;57.20;;;;;;5035971;28;20506;-74
2022/09/22 11:18:17;;;;;;;32.80;31.30;;;16.60;56.70;;;;;;5030074;28;20478;-73
2022/09/22 11:20:47;;;;;;;40.83;38.83;;;16.70;55.70;;;;;;5027539;28;20539;-76
2022/09/22 11:23:48;;;;;;;37.00;35.00;;;16.90;55.10;;;;;;5022629;28;20843;-75
2022/09/22 11:26:36;;;;;;;32.40;30.83;;;16.90;55.70;;;;;;5029454;28;20486;-75
2022/09/22 11:29:32;;;;;;;31.37;29.80;;;16.90;55.30;;;;;;5025138;28;20452;-75
2022/09/22 11:32:13;;;;;;;39.00;36.80;;;16.90;55.60;;;;;;5027195;28;20464;-75
2022/09/22 11:35:01;;;;;;;33.43;31.83;;;16.90;55.60;;;;;;5025306;28;20456;-76
2022/09/22 11:37:42;;;;;;;38.10;36.17;;;16.90;55.40;;;;;;5028880;28;20902;-76
2022/09/22 11:40:31;;;;;;;32.57;30.87;;;17.00;56.10;;;;;;5019919;28;20555;-77
2022/09/22 11:43:09;;;;;;;32.77;30.97;;;17.30;55.40;;;;;;5028077;28;20478;-76
2022/09/22 11:45:46;;;;;;;43.00;41.00;;;17.50;54.90;;;;;;5026048;28;20483;-75
2022/09/22 11:48:31;;;;;;;31.87;30.27;;;17.60;54.80;;;;;;5027404;28;20459;-76
2022/09/22 11:51:12;;;;;;;31.60;30.10;;;17.50;54.40;;;;;;5027996;28;20547;-77
2022/09/22 11:53:57;;;;;;;30.97;29.57;;;17.70;53.80;;;;;;5016444;28;20468;-76
2022/09/22 11:56:37;;;;;;;34.60;32.90;;;17.70;52.60;;;;;;5030392;28;20514;-76
2022/09/22 11:59:13;;;;;;;32.10;30.60;;;17.70;52.10;;;;;;5023325;28;21691;-76
2022/09/22 12:01:41;;;;;;;35.07;33.47;;;17.50;53.00;;;;;;5021603;28;20463;-75
2022/09/22 12:04:19;;;;;;;33.73;32.03;;;17.50;53.20;;;;;;5025330;28;21005;-77
2022/09/22 12:06:51;;;;;;;34.63;33.03;;;17.60;53.60;;;;;;5023605;28;20475;-75
2022/09/22 12:09:29;;;;;;;32.80;31.30;;;17.50;53.50;;;;;;5026319;28;20981;-76
2022/09/22 12:11:59;;;;;;;33.70;32.10;;;17.60;53.20;;;;;;5027175;28;20603;-76
2022/09/22 12:14:27;;;;;;;31.60;30.00;;;17.80;52.60;;;;;;5028331;28;20459;-75
2022/09/22 12:17:00;;;;;;;33.80;32.10;;;17.80;52.40;;;;;;5026836;28;20479;-76
2022/09/22 12:19:34;;;;;;;31.43;29.83;;;17.70;53.20;;;;;;5024274;28;20473;-75
2022/09/22 12:22:10;;;;;;;37.80;36.00;;;17.90;52.40;;;;;;5028020;28;20459;-75
2022/09/22 12:24:38;;;;;;;40.87;38.83;;;18.00;52.70;;;;;;5030235;28;21321;-75
2022/09/22 12:27:21;;;;;;;36.20;34.50;;;18.10;51.30;;;;;;5025128;28;20989;-76
2022/09/22 12:29:56;;;;;;;32.80;31.30;;;17.90;51.20;;;;;;5034023;28;20463;-76
2022/09/22 12:32:24;;;;;;;33.40;31.87;;;17.40;51.70;;;;;;5024833;28;20595;-76
2022/09/22 12:34:52;;;;;;;36.97;35.20;;;17.50;52.60;;;;;;5025778;28;20987;-76
2022/09/22 12:37:28;;;;;;;31.97;30.33;;;17.70;51.40;;;;;;5023461;28;20467;-72
2022/09/22 12:39:57;;;;;;;39.70;37.80;;;17.60;51.40;;;;;;5024285;28;20468;-72
2022/09/22 12:42:34;;;;;;;31.67;30.27;;;17.60;51.20;;;;;;5023341;28;20480;-73
2022/09/22 12:45:08;;;;;;;40.77;38.87;;;17.60;50.10;;;;;;5033640;28;20571;-73
2022/09/22 12:47:38;;;;;;;29.50;28.10;;;17.60;50.90;;;;;;5027402;28;20455;-72
2022/09/22 12:50:26;;;;;;;42.87;40.67;;;17.80;51.30;;;;;;5028440;28;20453;-72
2022/09/22 12:53:03;;;;;;;33.23;31.63;;;18.10;51.50;;;;;;5027000;28;20495;-72
2022/09/22 12:55:37;;;;;;;39.33;37.53;;;18.20;50.80;;;;;;5022756;28;20984;-72
2022/09/22 12:58:40;;;;;;;30.97;29.50;;;18.30;50.20;;;;;;5028916;28;20466;-72
2022/09/22 13:01:31;;;;;;;32.47;30.97;;;18.60;49.60;;;;;;5021084;28;20839;-73
2022/09/22 13:04:15;;;;;;;40.53;38.63;;;18.60;49.10;;;;;;5019233;28;20591;-75
2022/09/22 13:06:57;;;;;;;31.07;29.67;;;18.60;48.00;;;;;;5033117;28;20964;-74
2022/09/22 13:09:28;;;;;;;37.37;35.60;;;18.60;48.80;;;;;;5025536;28;20464;-73
2022/09/22 13:12:27;;;;;;;30.33;28.70;;;18.60;49.00;;;;;;5026784;28;20460;-74